Time;durP1;ratioP1;P1;durP2;ratioP2;P2;SDS_P1;SDS_P2;PMS_P1;PMS_P2;Temp;Humidity;BMP_temperature;BMP_pressure;BME280_temperature;BME280_humidity;BME280_pressure;Samples;Min_cycle;Max_cycle;Signal;HPM_P1;HPM_P2
2022/04/08 00:01:01;;;;;;;14.18;1.80;;;;;;;5.39;91.23;99636.94;5055517;28;20048;-73
2022/04/08 00:03:29;;;;;;;13.82;1.95;;;;;;;5.43;91.94;99648.41;5054020;28;20107;-72
2022/04/08 00:05:55;;;;;;;11.45;1.55;;;;;;;5.41;92.02;99637.56;5055397;28;20025;-73
2022/04/08 00:08:21;;;;;;;6.10;1.95;;;;;;;5.38;92.07;99649.91;5055343;28;20107;-72
2022/04/08 00:10:47;;;;;;;14.32;1.90;;;;;;;5.39;90.92;99649.75;5055316;28;20022;-72
2022/04/08 00:13:13;;;;;;;11.88;1.55;;;;;;;5.36;89.88;99649.34;5055326;28;20047;-72
2022/04/08 00:15:39;;;;;;;10.60;2.10;;;;;;;5.32;91.14;99648.09;5055318;28;20028;-72
2022/04/08 00:18:05;;;;;;;12.73;1.88;;;;;;;5.35;90.31;99658.78;5055180;28;20029;-72
2022/04/08 00:20:32;;;;;;;9.80;1.80;;;;;;;5.41;90.13;99657.28;5053819;28;20075;-72
2022/04/08 00:22:57;;;;;;;11.95;1.75;;;;;;;5.49;88.93;99659.72;5054991;28;20496;-72
2022/04/08 00:25:23;;;;;;;12.48;2.03;;;;;;;5.46;88.14;99664.41;5054880;28;20033;-72
2022/04/08 00:27:48;;;;;;;15.00;1.80;;;;;;;5.42;89.47;99669.88;5053679;28;20070;-73
2022/04/08 00:30:13;;;;;;;15.00;2.10;;;;;;;5.34;88.00;99677.69;5053699;28;20036;-72
2022/04/08 00:32:38;;;;;;;11.73;1.55;;;;;;;5.19;89.60;99679.47;5054546;28;20032;-72
2022/04/08 00:35:04;;;;;;;15.07;2.20;;;;;;;5.14;89.38;99679.22;5054893;28;20028;-72
2022/04/08 00:37:29;;;;;;;13.57;1.75;;;;;;;5.04;88.20;99679.50;5054728;28;20372;-73
2022/04/08 00:39:54;;;;;;;18.70;2.63;;;;;;;4.89;88.34;99686.34;5054750;28;20032;-73
2022/04/08 00:42:20;;;;;;;13.52;1.80;;;;;;;4.91;88.00;99687.00;5054670;28;20464;-72
2022/04/08 00:44:45;;;;;;;7.40;1.58;;;;;;;4.89;87.34;99691.47;5053320;28;20433;-72
2022/04/08 00:47:11;;;;;;;12.75;1.65;;;;;;;4.80;86.73;99695.09;5054795;28;20020;-73
2022/04/08 00:49:37;;;;;;;12.32;2.20;;;;;;;4.77;87.09;99695.44;5054578;28;20476;-72
2022/04/08 00:52:04;;;;;;;14.07;1.77;;;;;;;4.82;85.61;99701.63;5054513;28;20070;-72
2022/04/08 00:54:30;;;;;;;12.25;1.75;;;;;;;4.87;85.97;99703.69;5054744;28;20476;-72
2022/04/08 00:56:56;;;;;;;12.48;2.28;;;;;;;4.78;86.50;99699.63;5054383;28;20447;-72
2022/04/08 00:59:22;;;;;;;13.18;2.00;;;;;;;4.75;88.34;99701.56;5054557;28;20059;-72
2022/04/08 01:01:47;;;;;;;15.50;2.00;;;;;;;4.68;88.58;99708.31;5054346;28;20017;-72
2022/04/08 01:04:13;;;;;;;11.65;2.05;;;;;;;4.71;87.41;99720.78;5036479;28;20025;-71
2022/04/08 01:06:38;;;;;;;16.17;2.35;;;;;;;4.69;88.90;99712.50;5052933;28;20082;-72
2022/04/08 01:09:03;;;;;;;11.55;2.00;;;;;;;4.61;89.77;99715.13;5036067;28;20072;-72
2022/04/08 01:11:29;;;;;;;15.20;2.10;;;;;;;4.55;88.23;99713.25;5054788;28;20492;-71
2022/04/08 01:13:54;;;;;;;13.48;2.28;;;;;;;4.49;87.72;99724.97;5054166;28;20100;-73
2022/04/08 01:16:20;;;;;;;12.30;1.77;;;;;;;4.46;88.42;99738.13;5054203;28;20024;-72
2022/04/08 01:18:45;;;;;;;15.05;2.05;;;;;;;4.43;87.31;99742.75;5054119;28;20031;-72
2022/04/08 01:21:10;;;;;;;20.88;2.28;;;;;;;4.48;87.56;99743.84;5053978;28;20496;-72
2022/04/08 01:23:36;;;;;;;23.63;3.25;;;;;;;4.38;86.64;99735.63;5053943;28;20108;-71
2022/04/08 01:26:08;;;;;;;12.23;1.80;;;;;;;4.33;89.51;99732.78;5053936;28;20081;-72
2022/04/08 01:28:34;;;;;;;13.02;2.42;;;;;;;4.32;88.96;99733.75;5036193;28;20499;-73
2022/04/08 01:30:59;;;;;;;13.55;2.40;;;;;;;4.36;87.64;99742.66;5053738;28;20029;-73
2022/04/08 01:33:25;;;;;;;9.60;2.17;;;;;;;4.44;87.05;99749.50;5035991;28;20024;-72
2022/04/08 01:35:50;;;;;;;11.55;1.67;;;;;;;4.45;86.61;99749.31;5053837;28;20032;-72
2022/04/08 01:38:15;;;;;;;16.08;1.98;;;;;;;4.30;88.26;99751.81;5052464;28;20028;-72
2022/04/08 01:40:41;;;;;;;11.82;1.98;;;;;;;4.34;87.13;99754.81;5053635;28;20040;-72
2022/04/08 01:43:06;;;;;;;11.95;2.00;;;;;;;4.43;85.25;99748.69;5052794;28;20078;-73
2022/04/08 01:45:31;;;;;;;12.30;2.65;;;;;;;4.44;85.46;99746.94;5053609;28;20016;-72
2022/04/08 01:47:57;;;;;;;14.55;2.03;;;;;;;4.37;86.15;99740.91;5052327;28;20025;-72
2022/04/08 01:50:22;;;;;;;12.60;1.80;;;;;;;4.31;86.17;99734.69;5053560;28;20484;-71
2022/04/08 01:52:48;;;;;;;16.52;2.45;;;;;;;4.46;84.98;99730.44;5053475;28;20021;-72
2022/04/08 01:55:14;;;;;;;15.73;2.10;;;;;;;4.51;85.06;99738.38;5053512;28;20028;-72
2022/04/08 01:57:41;;;;;;;16.77;2.70;;;;;;;4.47;85.08;99741.47;5053346;28;20028;-72
2022/04/08 02:00:08;;;;;;;14.05;3.08;;;;;;;4.42;85.66;99747.09;5052140;28;20017;-73
2022/04/08 02:02:34;;;;;;;20.25;2.63;;;;;;;4.44;85.72;99750.28;5053298;28;20388;-72
2022/04/08 02:04:59;;;;;;;14.93;2.47;;;;;;;4.44;84.50;99760.50;5053288;28;20029;-72
2022/04/08 02:07:26;;;;;;;14.48;1.67;;;;;;;4.41;85.74;99755.75;5053067;28;20029;-72
2022/04/08 02:09:51;;;;;;;18.48;2.40;;;;;;;4.41;86.71;99754.94;5053289;28;20024;-72
2022/04/08 02:12:16;;;;;;;15.55;2.13;;;;;;;4.43;85.14;99760.66;5053236;28;20021;-73
2022/04/08 02:14:42;;;;;;;23.20;2.40;;;;;;;4.41;84.84;99763.41;5053042;28;20032;-73
2022/04/08 02:17:07;;;;;;;13.95;2.47;;;;;;;4.26;86.03;99767.69;5053188;28;20464;-72
2022/04/08 02:19:32;;;;;;;20.83;2.33;;;;;;;4.30;85.28;99769.72;5053161;28;20047;-72
2022/04/08 02:21:58;;;;;;;12.20;1.73;;;;;;;4.39;84.37;99770.47;5052949;28;20017;-73
2022/04/08 02:24:23;;;;;;;12.80;2.05;;;;;;;4.29;84.60;99778.38;5053034;28;20051;-73
2022/04/08 02:26:49;;;;;;;11.73;2.05;;;;;;;4.35;85.13;99776.09;5051670;28;20171;-72
2022/04/08 02:29:14;;;;;;;10.32;1.77;;;;;;;4.32;82.38;99790.03;5051738;28;20036;-72
2022/04/08 02:31:39;;;;;;;10.02;1.67;;;;;;;4.38;83.52;99786.78;5052923;28;20036;-72
2022/04/08 02:34:05;;;;;;;16.00;2.20;;;;;;;4.45;82.61;99792.78;5052990;28;20021;-72
2022/04/08 02:36:30;;;;;;;13.68;1.85;;;;;;;4.53;81.21;99786.84;5051595;28;20052;-72
2022/04/08 02:38:55;;;;;;;11.43;1.88;;;;;;;4.67;81.14;99786.09;5052963;28;20106;-72
2022/04/08 02:41:20;;;;;;;11.68;2.08;;;;;;;4.62;81.49;99775.56;5052825;28;20384;-73
2022/04/08 02:43:46;;;;;;;8.32;1.67;;;;;;;4.55;82.00;99782.34;5052865;28;20021;-72
2022/04/08 02:46:11;;;;;;;14.88;1.80;;;;;;;4.46;83.28;99780.78;5052848;28;20490;-73
2022/04/08 02:48:36;;;;;;;14.48;1.73;;;;;;;4.36;83.04;99783.59;5051443;28;20029;-73
2022/04/08 02:51:01;;;;;;;12.48;2.22;;;;;;;4.30;83.35;99779.94;5051501;28;20029;-72
2022/04/08 02:53:27;;;;;;;10.80;1.77;;;;;;;4.23;83.35;99780.78;5052791;28;20029;-72
2022/04/08 02:55:52;;;;;;;9.63;1.60;;;;;;;4.32;82.94;99791.78;5055948;28;20472;-72
2022/04/08 02:58:17;;;;;;;9.60;1.85;;;;;;;4.21;84.60;99791.22;5056585;28;20379;-72
2022/04/08 03:00:42;;;;;;;7.85;1.75;;;;;;;4.13;84.86;99793.81;5056928;28;20033;-72
2022/04/08 03:03:08;;;;;;;7.65;1.80;;;;;;;4.19;84.79;99789.78;5055468;28;20019;-72
2022/04/08 03:05:33;;;;;;;9.25;1.65;;;;;;;4.12;85.59;99792.22;5056623;28;20388;-73
2022/04/08 03:07:58;;;;;;;6.63;2.15;;;;;;;4.10;86.32;99801.81;5055104;28;20520;-73
2022/04/08 03:10:23;;;;;;;8.73;1.77;;;;;;;4.01;86.87;99800.28;5056452;28;20100;-72
2022/04/08 03:12:49;;;;;;;14.50;2.15;;;;;;;4.00;86.95;99798.66;5055245;28;20029;-72
2022/04/08 03:15:14;;;;;;;13.88;2.20;;;;;;;4.02;87.30;99806.97;5055197;28;20483;-73
2022/04/08 03:17:39;;;;;;;10.50;2.03;;;;;;;3.99;87.75;99808.09;5056480;28;20039;-72
2022/04/08 03:20:05;;;;;;;13.25;2.30;;;;;;;3.91;88.72;99820.13;5056291;28;20361;-73
2022/04/08 03:22:31;;;;;;;13.30;2.10;;;;;;;4.00;88.42;99829.34;5056102;28;20029;-73
2022/04/08 03:24:56;;;;;;;10.88;1.90;;;;;;;3.89;89.01;99825.41;5056254;28;20096;-73
2022/04/08 03:27:21;;;;;;;15.73;2.35;;;;;;;3.89;89.19;99834.84;5038328;28;20033;-72
2022/04/08 03:29:48;;;;;;;8.30;2.42;;;;;;;3.90;88.75;99836.44;5056221;28;20021;-72
2022/04/08 03:32:14;;;;;;;11.73;2.17;;;;;;;3.95;89.49;99840.09;5056034;28;20017;-73
2022/04/08 03:34:39;;;;;;;10.02;1.80;;;;;;;3.87;90.29;99837.56;5054800;28;20115;-73
2022/04/08 03:37:05;;;;;;;10.38;1.90;;;;;;;3.96;90.54;99835.75;5056054;28;20106;-72
2022/04/08 03:39:30;;;;;;;14.07;2.13;;;;;;;3.95;90.24;99836.75;5055915;28;20033;-72
2022/04/08 03:41:56;;;;;;;11.90;2.10;;;;;;;4.01;89.27;99839.41;5054492;28;20029;-72
2022/04/08 03:44:21;;;;;;;14.63;2.80;;;;;;;4.01;89.24;99839.41;5056106;28;20044;-72
2022/04/08 03:46:47;;;;;;;13.73;2.35;;;;;;;4.05;89.06;99842.44;5055872;28;20107;-72
2022/04/08 03:49:16;;;;;;;15.05;2.10;;;;;;;4.00;89.73;99844.69;5054513;28;20500;-72
2022/04/08 03:51:43;;;;;;;18.67;3.65;;;;;;;3.98;90.30;99838.97;5055735;28;20095;-72
2022/04/08 03:54:08;;;;;;;15.65;2.58;;;;;;;3.96;89.72;99836.56;5054325;28;20087;-73
2022/04/08 03:56:34;;;;;;;10.18;2.13;;;;;;;3.92;89.93;99842.19;5055882;28;20029;-72
2022/04/08 03:59:00;;;;;;;12.02;2.22;;;;;;;4.04;89.86;99840.84;5055504;28;20028;-72
2022/04/08 04:01:25;;;;;;;15.25;2.38;;;;;;;4.14;89.44;99830.41;5055824;28;20448;-72
2022/04/08 04:03:50;;;;;;;16.70;2.15;;;;;;;4.13;88.53;99834.72;5055414;28;20464;-73
2022/04/08 04:06:16;;;;;;;10.45;2.08;;;;;;;4.10;88.53;99831.72;5054640;28;20432;-73
2022/04/08 04:08:41;;;;;;;9.73;2.22;;;;;;;4.01;88.40;99831.75;5053983;28;20063;-72
2022/04/08 04:11:06;;;;;;;8.60;2.92;;;;;;;3.93;88.42;99824.09;5055416;28;20044;-72
2022/04/08 04:13:31;;;;;;;15.80;2.72;;;;;;;3.95;87.86;99829.06;5054119;28;20024;-73
2022/04/08 04:15:57;;;;;;;11.45;2.45;;;;;;;4.03;88.03;99827.28;5037329;28;20378;-72
2022/04/08 04:18:22;;;;;;;9.43;2.58;;;;;;;4.04;87.88;99826.28;5055269;28;20033;-72
2022/04/08 04:20:47;;;;;;;12.07;2.60;;;;;;;4.03;87.42;99826.47;5053948;28;20515;-73
2022/04/08 04:23:12;;;;;;;12.10;2.15;;;;;;;3.93;87.43;99829.22;5055166;28;20033;-73
2022/04/08 04:25:38;;;;;;;15.63;2.83;;;;;;;3.83;88.33;99824.31;5055143;28;20025;-72
2022/04/08 04:28:04;;;;;;;10.77;2.40;;;;;;;3.58;88.09;99821.06;5053760;28;20028;-72
2022/04/08 04:30:30;;;;;;;17.08;2.60;;;;;;;3.55;88.84;99818.81;5055093;28;20040;-73
2022/04/08 04:32:56;;;;;;;7.15;2.22;;;;;;;3.54;88.48;99824.09;5053742;28;20021;-73
2022/04/08 04:35:22;;;;;;;9.90;2.28;;;;;;;3.57;89.29;99826.34;5054954;28;20020;-72
2022/04/08 04:37:48;;;;;;;6.50;2.42;;;;;;;3.54;90.06;99824.09;5054974;28;20025;-72
2022/04/08 04:40:13;;;;;;;9.45;2.75;;;;;;;3.58;89.48;99822.81;5053649;28;20029;-71
2022/04/08 04:42:38;;;;;;;14.18;2.50;;;;;;;3.59;89.69;99819.28;5054895;28;20025;-73
2022/04/08 04:45:04;;;;;;;11.10;2.75;;;;;;;3.69;89.44;99827.56;5054795;28;20112;-72
2022/04/08 04:47:30;;;;;;;12.80;2.63;;;;;;;3.72;88.26;99821.34;5066068;28;20024;-71
2022/04/08 04:49:55;;;;;;;12.75;2.53;;;;;;;3.76;87.62;99827.69;5038502;28;20490;-73
2022/04/08 04:52:20;;;;;;;12.45;2.65;;;;;;;3.70;87.99;99826.59;5055179;28;20021;-73
2022/04/08 04:54:46;;;;;;;9.60;2.65;;;;;;;3.72;87.58;99829.00;5054622;28;20082;-73
2022/04/08 04:57:11;;;;;;;10.63;2.80;;;;;;;3.59;88.85;99830.28;5053219;28;20399;-71
2022/04/08 04:59:36;;;;;;;8.80;2.08;;;;;;;3.54;88.84;99824.91;5054514;28;20044;-72
2022/04/08 05:02:02;;;;;;;9.25;2.38;;;;;;;3.53;88.59;99825.84;5055735;28;20029;-73
2022/04/08 05:04:28;;;;;;;6.68;2.25;;;;;;;3.61;88.42;99830.16;5054600;28;20029;-73
2022/04/08 05:06:53;;;;;;;10.75;2.80;;;;;;;3.67;88.04;99824.38;5036560;28;20052;-72
2022/04/08 05:09:18;;;;;;;12.98;2.70;;;;;;;3.71;88.64;99825.66;5052943;28;20045;-72
2022/04/08 05:11:44;;;;;;;12.57;2.47;;;;;;;3.73;88.35;99828.03;5052908;28;20068;-72
2022/04/08 05:14:09;;;;;;;6.30;2.22;;;;;;;3.73;88.69;99826.25;5036561;28;20021;-73
2022/04/08 05:16:34;;;;;;;10.07;2.50;;;;;;;3.71;87.77;99823.09;5052923;28;20025;-74
2022/04/08 05:19:00;;;;;;;8.63;2.42;;;;;;;3.66;88.74;99827.91;5054137;28;20066;-74
2022/04/08 05:21:26;;;;;;;16.63;3.75;;;;;;;3.86;87.67;99823.19;5036144;28;20032;-72
2022/04/08 05:23:51;;;;;;;11.50;2.65;;;;;;;3.92;87.67;99827.63;5054003;28;20040;-72
2022/04/08 05:26:17;;;;;;;10.65;2.55;;;;;;;4.00;86.83;99825.06;5052710;28;20024;-72
2022/04/08 05:28:42;;;;;;;14.18;2.40;;;;;;;4.06;87.05;99824.38;5056202;28;20025;-73
2022/04/08 05:31:07;;;;;;;8.43;2.38;;;;;;;3.88;87.81;99826.34;5053749;28;20024;-72
2022/04/08 05:33:33;;;;;;;9.05;2.17;;;;;;;4.03;86.72;99832.38;5053695;28;20170;-72
2022/04/08 05:35:58;;;;;;;11.68;2.28;;;;;;;4.01;86.92;99820.72;5054000;28;20540;-73
2022/04/08 05:38:23;;;;;;;16.23;2.78;;;;;;;4.07;86.21;99831.06;5053490;28;20033;-72
2022/04/08 05:40:49;;;;;;;8.60;2.17;;;;;;;4.20;85.82;99824.59;5053743;28;20082;-73
2022/04/08 05:43:15;;;;;;;6.25;2.30;;;;;;;4.25;85.47;99830.00;5053540;28;20075;-72
2022/04/08 05:45:41;;;;;;;13.05;2.45;;;;;;;4.33;85.80;99827.41;5053748;28;20438;-72
2022/04/08 05:48:07;;;;;;;11.15;2.60;;;;;;;4.46;84.46;99832.78;5052380;28;20039;-72
2022/04/08 05:50:33;;;;;;;17.55;2.55;;;;;;;4.44;85.35;99826.25;5050848;28;20028;-72
2022/04/08 05:52:58;;;;;;;10.18;2.17;;;;;;;4.55;85.17;99822.50;5051746;28;20025;-73
2022/04/08 05:55:23;;;;;;;10.80;2.42;;;;;;;4.66;83.98;99820.31;5053330;28;20143;-72
2022/04/08 05:57:49;;;;;;;11.73;2.40;;;;;;;4.65;83.84;99818.72;5051767;28;20028;-73
2022/04/08 06:00:15;;;;;;;11.25;2.50;;;;;;;4.72;83.85;99814.53;5053112;28;20021;-73
2022/04/08 06:02:45;;;;;;;11.35;2.70;;;;;;;4.70;83.60;99818.22;5052715;28;20033;-72
2022/04/08 06:05:11;;;;;;;11.23;2.30;;;;;;;4.95;83.06;99814.50;5052177;28;20048;-73
2022/04/08 06:07:51;;;;;;;8.60;2.40;;;;;;;4.89;82.75;99811.81;5051575;28;20045;-73
2022/04/08 06:10:18;;;;;;;12.40;2.75;;;;;;;4.90;84.06;99815.97;5052065;28;20024;-72
2022/04/08 06:12:46;;;;;;;14.13;2.85;;;;;;;5.04;82.83;99816.97;5052077;28;20429;-73
2022/04/08 06:15:11;;;;;;;13.05;2.67;;;;;;;5.24;81.55;99820.63;5050055;28;20388;-72
2022/04/08 06:17:37;;;;;;;15.98;2.60;;;;;;;5.30;81.85;99819.91;5048307;28;20259;-72
2022/04/08 06:20:07;;;;;;;8.80;2.50;;;;;;;5.22;82.16;99821.78;5030496;28;20025;-73
2022/04/08 06:22:33;;;;;;;12.30;2.53;;;;;;;5.32;82.12;99822.28;5047514;28;20549;-72
2022/04/08 06:24:58;;;;;;;11.77;3.60;;;;;;;5.61;81.12;99824.88;5048090;28;20116;-72
2022/04/08 06:27:23;;;;;;;9.07;2.90;;;;;;;5.78;80.40;99827.22;5049067;28;20021;-72
2022/04/08 06:29:48;;;;;;;9.50;3.58;;;;;;;5.85;79.98;99830.69;5051389;28;20234;-72
2022/04/08 06:32:14;;;;;;;14.55;2.47;;;;;;;5.97;79.37;99826.72;5051911;28;20025;-73
2022/04/08 06:34:39;;;;;;;9.68;3.05;;;;;;;6.13;78.54;99822.34;5053039;28;20024;-73
2022/04/08 06:37:05;;;;;;;12.52;3.25;;;;;;;6.23;78.82;99828.78;5055058;28;20036;-72
2022/04/08 06:39:31;;;;;;;6.97;2.28;;;;;;;6.11;79.69;99825.09;5057429;28;20017;-72
2022/04/08 06:41:56;;;;;;;12.25;2.42;;;;;;;6.53;77.64;99829.47;5053043;28;20025;-73
2022/04/08 06:44:22;;;;;;;10.02;2.20;;;;;;;6.32;78.07;99826.88;5053566;28;20029;-73
2022/04/08 06:46:47;;;;;;;17.23;2.88;;;;;;;6.85;77.08;99827.38;5055480;28;20384;-71
2022/04/08 06:49:13;;;;;;;10.60;2.67;;;;;;;7.66;75.32;99834.63;5051602;28;20025;-74
2022/04/08 06:51:38;;;;;;;10.73;2.38;;;;;;;10.94;62.62;99824.34;5036328;28;20032;-73
2022/04/08 06:54:03;;;;;;;14.73;2.90;;;;;;;13.00;54.09;99826.91;5052127;28;20104;-72
2022/04/08 06:56:29;;;;;;;9.30;2.40;;;;;;;13.50;51.91;99819.44;5060568;28;20032;-72
2022/04/08 06:58:54;;;;;;;16.95;2.45;;;;;;;13.57;51.75;99818.53;5051433;28;20365;-73
2022/04/08 07:01:19;;;;;;;12.50;2.58;;;;;;;12.97;53.75;99814.38;5053283;28;20040;-73
2022/04/08 07:03:44;;;;;;;10.45;2.60;;;;;;;13.60;50.60;99808.47;5057615;28;20029;-73
2022/04/08 07:06:10;;;;;;;10.20;2.67;;;;;;;14.48;49.58;99821.19;5050202;28;20039;-73
2022/04/08 07:08:35;;;;;;;12.50;2.90;;;;;;;14.29;48.64;99825.81;5057264;28;20037;-74
2022/04/08 07:11:00;;;;;;;15.77;2.80;;;;;;;13.54;50.88;99802.38;5054142;28;20120;-76
2022/04/08 07:13:26;;;;;;;7.32;2.65;;;;;;;14.31;48.04;99814.16;5055630;28;20021;-73
2022/04/08 07:15:51;;;;;;;13.70;2.80;;;;;;;14.78;47.57;99816.47;5054770;28;20025;-73
2022/04/08 07:18:16;;;;;;;13.77;2.70;;;;;;;15.25;45.86;99816.09;5055254;28;20021;-73
2022/04/08 07:20:42;;;;;;;8.48;2.53;;;;;;;14.18;48.75;99809.25;5054525;28;20021;-74
2022/04/08 07:23:07;;;;;;;9.52;2.80;;;;;;;14.69;48.19;99822.31;5055443;28;20065;-74
2022/04/08 07:25:32;;;;;;;10.93;2.50;;;;;;;14.15;47.92;99809.72;5054015;28;20021;-74
2022/04/08 07:28:01;;;;;;;11.73;2.60;;;;;;;14.60;48.59;99821.94;5054769;28;20361;-73
2022/04/08 07:30:27;;;;;;;9.57;2.42;;;;;;;15.18;46.62;99823.28;5054697;28;20021;-74
2022/04/08 07:32:54;;;;;;;9.52;2.80;;;;;;;15.32;47.05;99819.28;5057707;28;20028;-73
2022/04/08 07:35:21;;;;;;;13.10;2.60;;;;;;;13.97;49.53;99815.91;5053739;28;20450;-73
2022/04/08 07:37:46;;;;;;;9.63;2.28;;;;;;;12.84;53.47;99820.59;5036240;28;20495;-73
2022/04/08 07:40:13;;;;;;;10.77;2.72;;;;;;;13.20;52.52;99811.00;5052332;28;20029;-73
2022/04/08 07:42:39;;;;;;;8.45;2.22;;;;;;;12.47;53.62;99810.41;5055791;28;20029;-74
2022/04/08 07:45:06;;;;;;;12.07;2.40;;;;;;;12.78;52.89;99809.31;5054939;28;20025;-73
2022/04/08 07:47:32;;;;;;;8.02;2.30;;;;;;;13.10;53.24;99808.97;5056868;28;20021;-73
2022/04/08 07:49:58;;;;;;;13.32;2.20;;;;;;;13.59;50.82;99796.50;5039613;28;20029;-73
2022/04/08 07:52:25;;;;;;;13.85;2.45;;;;;;;13.62;51.06;99795.25;5055049;28;20095;-74
2022/04/08 07:54:50;;;;;;;12.07;2.72;;;;;;;12.62;52.98;99807.38;5058391;28;20027;-73
2022/04/08 07:57:16;;;;;;;11.50;2.50;;;;;;;11.62;57.73;99802.75;5055967;28;20465;-74
2022/04/08 07:59:42;;;;;;;8.32;2.20;;;;;;;10.84;60.45;99807.50;5056355;28;20071;-73
2022/04/08 08:02:07;;;;;;;13.57;2.90;;;;;;;11.61;57.28;99796.78;5056385;28;20033;-74
2022/04/08 08:04:32;;;;;;;13.80;2.58;;;;;;;12.09;55.04;99792.63;5054675;28;20464;-74
2022/04/08 08:06:57;;;;;;;10.65;2.60;;;;;;;12.30;56.89;99799.88;5057151;28;20025;-74
2022/04/08 08:09:23;;;;;;;9.32;2.58;;;;;;;11.83;58.13;99793.75;5054873;28;20179;-74
2022/04/08 08:11:48;;;;;;;15.07;2.67;;;;;;;12.10;55.83;99791.63;5053862;28;20032;-73
2022/04/08 08:14:13;;;;;;;13.38;2.55;;;;;;;12.12;56.39;99795.56;5056324;28;20035;-73
2022/04/08 08:16:39;;;;;;;14.20;3.00;;;;;;;11.91;57.19;99796.84;5057385;28;20040;-73
2022/04/08 08:19:04;;;;;;;13.70;2.70;;;;;;;11.67;58.96;99800.28;5056909;28;20551;-74
2022/04/08 08:21:29;;;;;;;13.07;2.90;;;;;;;12.29;56.33;99803.50;5054291;28;20130;-72
2022/04/08 08:23:54;;;;;;;8.02;2.10;;;;;;;12.76;56.40;99798.38;5053870;28;20029;-73
2022/04/08 08:26:20;;;;;;;10.18;2.60;;;;;;;13.34;54.96;99796.78;5055488;28;20021;-73
2022/04/08 08:28:45;;;;;;;10.98;2.17;;;;;;;13.08;56.47;99796.22;5056535;28;20086;-73
2022/04/08 08:31:10;;;;;;;9.85;2.05;;;;;;;12.82;53.90;99792.28;5058432;28;20460;-74
2022/04/08 08:33:36;;;;;;;10.48;2.03;;;;;;;12.93;55.41;99790.72;5057320;28;20021;-74
2022/04/08 08:36:01;;;;;;;11.88;2.80;;;;;;;13.48;51.73;99782.53;5055512;28;20021;-73
2022/04/08 08:38:26;;;;;;;12.95;2.30;;;;;;;13.29;52.47;99789.72;5054223;28;20036;-76
2022/04/08 08:40:53;;;;;;;10.85;1.98;;;;;;;13.30;51.23;99773.09;5054659;28;20079;-72
2022/04/08 08:43:18;;;;;;;12.27;1.85;;;;;;;12.83;55.25;99773.16;5054738;28;20062;-73
2022/04/08 08:45:47;;;;;;;8.23;2.17;;;;;;;13.21;53.55;99771.06;5055811;28;20104;-73
2022/04/08 08:48:13;;;;;;;12.57;2.15;;;;;;;13.29;53.03;99752.56;5038285;28;20045;-74
2022/04/08 08:50:39;;;;;;;10.60;1.95;;;;;;;13.48;51.82;99759.19;5036615;28;20036;-74
2022/04/08 08:53:05;;;;;;;9.38;1.92;;;;;;;12.78;52.92;99764.47;5052522;28;20028;-73
2022/04/08 08:55:30;;;;;;;7.13;1.92;;;;;;;12.39;52.71;99766.66;5055260;28;20400;-74
2022/04/08 08:57:55;;;;;;;10.05;2.15;;;;;;;12.52;53.15;99763.09;5054167;28;20025;-73
2022/04/08 09:00:23;;;;;;;8.57;1.80;;;;;;;12.47;55.89;99763.75;5055362;28;20039;-74
2022/04/08 09:02:49;;;;;;;10.98;2.15;;;;;;;12.57;53.82;99770.97;5053580;28;20480;-73
2022/04/08 09:05:25;;;;;;;9.80;2.03;;;;;;;12.21;54.89;99756.41;5054804;28;20025;-75
2022/04/08 09:07:58;;;;;;;10.73;2.28;;;;;;;11.80;55.54;99757.94;5052774;28;20523;-74
2022/04/08 09:10:25;;;;;;;12.27;1.80;;;;;;;11.11;57.47;99752.19;5054543;28;20476;-74
2022/04/08 09:12:57;;;;;;;10.70;2.45;;;;;;;11.21;58.60;99752.47;5054722;28;20439;-73
2022/04/08 09:15:23;;;;;;;11.05;1.83;;;;;;;11.01;59.49;99739.75;5055292;28;20021;-73
2022/04/08 09:17:49;;;;;;;7.75;1.85;;;;;;;11.23;55.29;99747.88;5055059;28;20078;-75
2022/04/08 09:20:14;;;;;;;13.15;1.90;;;;;;;11.43;58.21;99739.88;5037307;28;20036;-74
2022/04/08 09:22:40;;;;;;;10.95;2.13;;;;;;;11.11;59.28;99745.22;5054261;28;20091;-74
2022/04/08 09:25:12;;;;;;;10.15;2.25;;;;;;;11.06;59.57;99753.59;5053324;28;20115;-73
2022/04/08 09:27:39;;;;;;;5.97;1.60;;;;;;;10.92;55.96;99759.13;5054173;28;20025;-74
2022/04/08 09:30:07;;;;;;;10.48;1.95;;;;;;;10.74;58.09;99759.91;5054679;28;20033;-74
2022/04/08 09:32:33;;;;;;;9.95;1.80;;;;;;;10.79;56.93;99765.22;5054306;28;20024;-74
2022/04/08 09:34:58;;;;;;;9.20;2.28;;;;;;;10.55;55.83;99759.06;5055297;28;20025;-74
2022/04/08 09:37:23;;;;;;;7.93;1.83;;;;;;;10.50;57.43;99754.53;5055898;28;20021;-73
2022/04/08 09:40:03;;;;;;;6.18;1.80;;;;;;;10.28;58.97;99748.16;5054396;28;20198;-74
2022/04/08 09:42:42;;;;;;;9.93;2.10;;;;;;;10.06;57.46;99755.41;5052364;28;20028;-74
2022/04/08 09:45:09;;;;;;;10.07;1.83;;;;;;;10.31;59.21;99747.72;5052652;28;20037;-73
2022/04/08 09:47:34;;;;;;;12.35;2.40;;;;;;;9.99;58.57;99754.66;5053810;28;20016;-72
2022/04/08 09:49:59;;;;;;;10.88;1.90;;;;;;;9.96;60.45;99752.50;5053721;28;20039;-72
2022/04/08 09:52:26;;;;;;;10.32;1.90;;;;;;;10.13;59.49;99749.19;5053759;28;20082;-71
2022/04/08 09:54:52;;;;;;;11.88;2.15;;;;;;;10.10;59.13;99754.78;5053558;28;20028;-73
2022/04/08 09:57:18;;;;;;;8.18;2.95;;;;;;;10.32;60.00;99737.16;5053245;28;20029;-73
2022/04/08 09:59:48;;;;;;;10.45;1.98;;;;;;;10.21;59.74;99744.78;5054017;28;20021;-74
2022/04/08 10:02:16;;;;;;;8.40;2.20;;;;;;;9.90;60.62;99742.00;5053630;28;20021;-74
2022/04/08 10:04:43;;;;;;;8.27;1.80;;;;;;;9.96;57.79;99722.31;5053243;28;20025;-73
2022/04/08 10:07:09;;;;;;;8.98;1.95;;;;;;;10.38;56.66;99738.91;5053490;28;20128;-74
2022/04/08 10:09:44;;;;;;;7.43;1.80;;;;;;;10.57;57.34;99747.50;5053444;28;20076;-73
2022/04/08 10:12:27;;;;;;;10.77;1.92;;;;;;;11.00;56.20;99748.50;5053994;28;20032;-74
2022/04/08 10:15:11;;;;;;;13.00;2.55;;;;;;;10.94;57.53;99757.91;5037633;28;20029;-74
2022/04/08 10:17:36;;;;;;;8.82;1.98;;;;;;;11.04;57.37;99757.41;5053768;28;20444;-74
2022/04/08 10:20:19;;;;;;;8.15;1.80;;;;;;;10.83;58.17;99758.63;5053831;28;20033;-74
2022/04/08 10:22:45;;;;;;;8.00;2.20;;;;;;;10.74;56.32;99758.09;5037049;28;20181;-73
2022/04/08 10:25:16;;;;;;;10.23;1.70;;;;;;;11.06;52.82;99761.38;5036712;28;20049;-73
2022/04/08 10:27:43;;;;;;;7.10;1.90;;;;;;;11.14;52.38;99752.53;5053873;28;20100;-73
2022/04/08 10:30:13;;;;;;;7.63;1.75;;;;;;;11.32;52.81;99759.50;5054041;28;20025;-74
2022/04/08 10:32:40;;;;;;;6.82;1.70;;;;;;;12.29;51.45;99764.63;5035927;28;20102;-74
2022/04/08 10:35:31;;;;;;;12.00;2.25;;;;;;;12.08;51.43;99770.31;5053229;28;20477;-74
2022/04/08 10:38:08;;;;;;;7.35;2.10;;;;;;;11.73;52.49;99756.22;5052610;28;20041;-74
2022/04/08 10:40:40;;;;;;;10.23;2.40;;;;;;;11.57;56.71;99759.41;5054926;28;20487;-74
2022/04/08 10:43:07;;;;;;;6.22;2.42;;;;;;;11.92;51.70;99756.22;5052472;28;20025;-76
2022/04/08 10:45:34;;;;;;;8.73;2.10;;;;;;;11.89;53.26;99751.47;5054448;28;20090;-74
2022/04/08 10:48:01;;;;;;;9.80;2.13;;;;;;;11.83;52.70;99749.75;5054858;28;20393;-74
2022/04/08 10:50:33;;;;;;;7.50;1.92;;;;;;;11.29;54.22;99740.03;5056459;28;20027;-73
2022/04/08 10:53:13;;;;;;;9.70;2.00;;;;;;;11.12;56.25;99744.22;5036173;28;20036;-75
2022/04/08 10:55:51;;;;;;;11.23;2.03;;;;;;;11.37;52.61;99749.31;5053608;28;20025;-74
2022/04/08 10:58:33;;;;;;;10.43;1.95;;;;;;;11.11;54.74;99750.41;5054033;28;20123;-75
2022/04/08 11:00:58;;;;;;;9.13;2.08;;;;;;;11.07;54.32;99760.34;5054281;28;20044;-73
2022/04/08 11:03:26;;;;;;;9.05;2.10;;;;;;;10.87;56.77;99759.75;5053079;28;20096;-75
2022/04/08 11:05:51;;;;;;;13.43;1.80;;;;;;;10.93;57.71;99764.06;5058105;28;20025;-74
2022/04/08 11:08:18;;;;;;;12.65;2.05;;;;;;;10.74;55.53;99760.69;5054116;28;20049;-74
2022/04/08 11:10:43;;;;;;;6.32;1.95;;;;;;;10.94;53.76;99762.31;5051991;28;20129;-74
2022/04/08 11:13:11;;;;;;;8.15;2.20;;;;;;;11.09;55.63;99746.44;5053749;28;20457;-74
2022/04/08 11:15:41;;;;;;;11.02;2.40;;;;;;;10.94;54.14;99742.41;5055882;28;20043;-74
2022/04/08 11:18:08;;;;;;;8.32;1.90;;;;;;;10.79;55.91;99735.00;5058776;28;20410;-73
2022/04/08 11:20:34;;;;;;;10.98;2.20;;;;;;;10.95;52.72;99736.22;5057857;28;20060;-73
2022/04/08 11:23:00;;;;;;;8.98;1.90;;;;;;;11.10;54.05;99727.31;5058818;28;20136;-73
2022/04/08 11:25:28;;;;;;;10.50;2.05;;;;;;;10.66;54.51;99736.91;5057297;28;20029;-72
2022/04/08 11:28:07;;;;;;;8.15;2.28;;;;;;;10.76;55.35;99740.59;5059731;28;20024;-74